Wallaceburg, Canada
Current Conditions -  °F | °C
As of 2:58 AM on Sunday 26 Oct 2014 (Local Time) from KMTC Reporting Station
Clear Clear  
Wind Chill: 50°   Ceiling: Unl
Heat Index: 50°   Visibility: 10mi
Dew Point: 31°   Wind: 8mph
Humidity: 47%   Direction: 280°W
Pressure: 29.81"   Gusts: NA
Location:  42.58°N, 82.37°W
Report Text: KMTC 260658Z AUTO 28007KT 10SM CLR 10/M01 A2981 RMK AO2 SLP098 T01001008
Loading
Personal Weather Stations






























Interactive Weather Map
Tropical Storm Tracking
New forecast layout! Learn more

10-Day Weather Forecast

Advertisements
Track Severe Weather on mobile